createdAt,value
2022-12-08T00:02:16.858Z,32.41
2022-12-08T00:04:59.365Z,32.37
2022-12-08T00:07:44.802Z,32.51
2022-12-08T00:10:46.506Z,32.56
2022-12-08T00:13:02.903Z,32.42
2022-12-08T00:15:31.298Z,32.45
2022-12-08T00:17:59.478Z,32.54
2022-12-08T00:20:27.861Z,32.62
2022-12-08T00:22:55.939Z,32.54
2022-12-08T00:25:24.279Z,32.34
2022-12-08T00:27:52.323Z,32.49
2022-12-08T00:30:22.194Z,32.38
2022-12-08T00:32:50.315Z,32.47
2022-12-08T00:35:18.722Z,32.33
2022-12-08T00:37:46.893Z,32.49
2022-12-08T00:40:15.619Z,32.51
2022-12-08T00:42:43.887Z,32.45
2022-12-08T00:45:13.122Z,32.22
2022-12-08T00:47:42.751Z,32.18
2022-12-08T00:50:11.349Z,32.22
2022-12-08T00:52:39.827Z,32.15
2022-12-08T00:55:08.879Z,32.07
2022-12-08T00:57:37.098Z,32.03
2022-12-08T01:00:06.896Z,32.18
2022-12-08T01:02:36.029Z,32.00
2022-12-08T01:05:06.564Z,32.09
2022-12-08T01:07:34.879Z,32.02
2022-12-08T01:10:03.516Z,32.22
2022-12-08T01:12:31.812Z,32.01
2022-12-08T01:15:02.551Z,32.11
2022-12-08T01:17:31.176Z,32.10
2022-12-08T01:19:59.714Z,32.07
2022-12-08T01:22:29.297Z,31.80
2022-12-08T01:24:57.811Z,32.24
2022-12-08T01:27:25.963Z,32.12
2022-12-08T01:29:54.417Z,31.92
2022-12-08T01:32:22.773Z,32.07
2022-12-08T01:34:51.253Z,31.91
2022-12-08T01:37:19.437Z,32.00
2022-12-08T01:39:49.366Z,31.84
2022-12-08T01:42:21.193Z,31.71
2022-12-08T01:45:01.122Z,31.38
2022-12-08T01:47:33.713Z,31.90
2022-12-08T01:50:02.522Z,32.04
2022-12-08T01:52:35.411Z,31.94
2022-12-08T01:55:08.375Z,31.83
2022-12-08T01:57:38.651Z,32.08
2022-12-08T02:00:10.681Z,31.89
2022-12-08T02:02:43.482Z,31.92
2022-12-08T02:05:12.282Z,32.14
2022-12-08T02:07:40.448Z,32.27
2022-12-08T02:10:12.463Z,31.72
2022-12-08T02:12:40.558Z,32.28
2022-12-08T02:15:10.191Z,31.91
2022-12-08T02:17:49.466Z,31.65
2022-12-08T02:20:26.373Z,31.52
2022-12-08T02:22:59.692Z,31.79
2022-12-08T02:25:35.312Z,31.66
2022-12-08T02:28:12.279Z,31.77
2022-12-08T02:30:48.731Z,31.31
2022-12-08T02:33:44.153Z,31.10
2022-12-08T02:36:16.616Z,31.81
2022-12-08T02:38:49.766Z,31.83
2022-12-08T02:41:22.545Z,32.10
2022-12-08T02:43:56.411Z,31.89
2022-12-08T02:46:28.008Z,32.44
2022-12-08T02:48:57.541Z,31.04
2022-12-08T02:51:25.946Z,32.46
2022-12-08T02:53:54.311Z,32.53
2022-12-08T02:56:36.601Z,32.06
2022-12-08T02:59:13.628Z,32.05
2022-12-08T03:01:54.959Z,31.80
2022-12-08T03:04:32.901Z,31.69
2022-12-08T03:07:06.292Z,31.95
2022-12-08T03:09:37.452Z,32.16
2022-12-08T03:12:10.765Z,32.20
2022-12-08T03:14:40.149Z,32.27
2022-12-08T03:17:09.818Z,32.29
2022-12-08T03:19:41.126Z,31.98
2022-12-08T03:22:10.599Z,32.24
2022-12-08T03:24:40.126Z,32.18
2022-12-08T03:27:10.085Z,32.13
2022-12-08T03:29:38.525Z,32.35
2022-12-08T03:32:10.756Z,31.88
2022-12-08T03:34:41.785Z,31.65
2022-12-08T03:37:10.000Z,30.50
2022-12-08T03:39:38.217Z,31.81
2022-12-08T03:42:06.837Z,31.96
2022-12-08T03:44:35.021Z,31.89
2022-12-08T03:47:03.406Z,31.88
2022-12-08T03:49:31.657Z,32.01
2022-12-08T03:52:01.400Z,31.64
2022-12-08T03:54:29.601Z,31.88
2022-12-08T03:56:58.041Z,31.94
2022-12-08T03:59:26.412Z,31.85
2022-12-08T04:01:54.929Z,31.95
2022-12-08T04:04:23.236Z,32.03
2022-12-08T04:06:51.719Z,32.32
2022-12-08T04:09:21.222Z,32.05
2022-12-08T04:11:49.912Z,32.17
2022-12-08T04:14:18.116Z,32.11
2022-12-08T04:16:46.563Z,32.30
2022-12-08T04:19:15.375Z,32.29
2022-12-08T04:21:44.002Z,32.19
2022-12-08T04:24:12.247Z,32.42
2022-12-08T04:26:42.074Z,32.28
2022-12-08T04:29:10.185Z,32.47
2022-12-08T04:31:38.701Z,32.36
2022-12-08T04:34:06.899Z,32.57
2022-12-08T04:36:35.275Z,32.46
2022-12-08T04:39:03.361Z,32.59
2022-12-08T04:41:31.860Z,32.66
2022-12-08T04:44:01.371Z,32.59
2022-12-08T04:46:29.994Z,32.88
2022-12-08T04:48:58.212Z,32.82
2022-12-08T04:51:27.386Z,32.85
2022-12-08T04:53:55.519Z,32.88
2022-12-08T04:56:24.128Z,32.84
2022-12-08T04:58:52.192Z,33.07
2022-12-08T05:01:22.157Z,32.63
2022-12-08T05:03:50.324Z,32.86
2022-12-08T05:06:18.865Z,32.94
2022-12-08T05:08:46.964Z,33.11
2022-12-08T05:11:15.640Z,32.99
2022-12-08T05:13:43.726Z,32.77
2022-12-08T05:16:14.180Z,33.06
2022-12-08T05:18:44.469Z,32.85
2022-12-08T05:21:12.940Z,32.75
2022-12-08T05:23:41.108Z,32.92
2022-12-08T05:26:09.789Z,32.75
2022-12-08T05:28:42.675Z,32.59
2022-12-08T05:31:12.034Z,32.67
2022-12-08T05:33:40.645Z,32.73
2022-12-08T05:36:11.325Z,32.32
2022-12-08T05:38:39.516Z,32.43
2022-12-08T05:41:08.215Z,32.64
2022-12-08T05:43:36.719Z,32.70
2022-12-08T05:46:05.368Z,32.73
2022-12-08T05:48:33.875Z,32.66
2022-12-08T05:51:02.605Z,32.49
2022-12-08T05:53:32.157Z,32.46
2022-12-08T05:56:00.716Z,32.57
2022-12-08T05:58:29.037Z,32.74
2022-12-08T06:00:57.465Z,32.57
2022-12-08T06:03:25.832Z,32.61
2022-12-08T06:05:54.218Z,32.85
2022-12-08T06:08:22.571Z,32.77
2022-12-08T06:10:52.417Z,32.47
2022-12-08T06:13:20.668Z,32.58
2022-12-08T06:15:49.129Z,32.54
2022-12-08T06:18:17.300Z,32.73
2022-12-08T06:20:46.037Z,32.52
2022-12-08T06:23:14.102Z,32.55
2022-12-08T06:25:42.749Z,32.90
2022-12-08T06:28:12.287Z,32.43
2022-12-08T06:30:40.808Z,32.67
2022-12-08T06:33:08.968Z,32.48
2022-12-08T06:35:38.440Z,32.48
2022-12-08T06:38:06.554Z,32.59
2022-12-08T06:40:35.011Z,32.66
2022-12-08T06:43:03.243Z,32.64
2022-12-08T06:45:33.134Z,32.69
2022-12-08T06:48:02.774Z,32.63
2022-12-08T06:50:32.648Z,32.67
2022-12-08T06:53:05.158Z,32.43
2022-12-08T06:55:58.000Z,32.52
2022-12-08T06:58:22.888Z,32.50
2022-12-08T07:00:52.746Z,32.01
2022-12-08T07:03:21.301Z,32.14
2022-12-08T07:05:49.683Z,31.92
2022-12-08T07:08:17.879Z,31.88
2022-12-08T07:10:46.502Z,31.86
2022-12-08T07:13:14.661Z,31.87
2022-12-08T07:15:43.064Z,31.66
2022-12-08T07:18:12.639Z,31.30
2022-12-08T07:20:41.227Z,31.34
2022-12-08T07:23:09.449Z,31.18
2022-12-08T07:25:37.930Z,30.93
2022-12-08T07:28:10.783Z,30.42
2022-12-08T07:30:39.719Z,30.53
2022-12-08T07:33:08.120Z,30.49
2022-12-08T07:35:38.011Z,30.04
2022-12-08T07:38:06.088Z,30.18
2022-12-08T07:40:34.718Z,29.88
2022-12-08T07:43:02.896Z,29.49
2022-12-08T07:45:32.033Z,29.28
2022-12-08T07:48:00.391Z,29.04
2022-12-08T07:50:30.568Z,28.58
2022-12-08T07:53:28.101Z,27.80
2022-12-08T07:56:06.913Z,28.40
2022-12-08T07:58:35.352Z,28.33
2022-12-08T08:01:03.911Z,28.69
2022-12-08T08:03:32.108Z,28.33
2022-12-08T08:06:04.041Z,27.49
2022-12-08T08:08:33.633Z,27.49
2022-12-08T08:11:08.961Z,27.51
2022-12-08T08:13:41.709Z,27.16
2022-12-08T08:16:13.454Z,27.03
2022-12-08T08:18:42.033Z,27.13
2022-12-08T08:24:00.425Z,26.58
2022-12-08T08:26:28.876Z,26.84
2022-12-08T08:28:56.969Z,26.96
2022-12-08T08:31:25.994Z,26.60
2022-12-08T08:33:54.436Z,26.99
2022-12-08T08:36:22.809Z,26.96
2022-12-08T08:38:50.931Z,26.92
2022-12-08T08:41:20.979Z,26.65
2022-12-08T08:43:49.364Z,26.45
2022-12-08T08:46:17.921Z,26.51
2022-12-08T08:48:46.240Z,26.44
2022-12-08T08:51:15.722Z,26.59
2022-12-08T08:53:44.014Z,26.39
2022-12-08T08:56:13.709Z,26.29
2022-12-08T08:58:43.423Z,26.22
2022-12-08T09:01:16.474Z,25.50
2022-12-08T09:03:45.580Z,24.96
2022-12-08T09:06:14.155Z,22.70
2022-12-08T09:08:42.573Z,21.69
2022-12-08T09:11:11.550Z,20.32
2022-12-08T09:13:39.762Z,19.98
2022-12-08T09:16:10.734Z,20.17
2022-12-08T09:18:39.851Z,20.58
2022-12-08T09:21:09.387Z,20.68
2022-12-08T09:23:37.528Z,21.26
2022-12-08T09:26:06.272Z,21.71
2022-12-08T09:28:34.580Z,21.56
2022-12-08T09:31:03.368Z,22.33
2022-12-08T09:33:33.165Z,22.18
2022-12-08T09:36:03.619Z,22.93
2022-12-08T09:38:31.968Z,23.34
2022-12-08T09:41:01.125Z,23.68
2022-12-08T09:43:51.783Z,23.42
2022-12-08T09:46:20.716Z,24.09
2022-12-08T09:48:55.908Z,23.87
2022-12-08T09:51:25.792Z,24.37
2022-12-08T09:53:56.622Z,24.20
2022-12-08T09:56:27.745Z,24.38
2022-12-08T09:58:58.323Z,23.98
2022-12-08T10:01:29.821Z,23.74
2022-12-08T10:03:59.642Z,24.01
2022-12-08T10:06:32.223Z,23.88
2022-12-08T10:09:11.167Z,23.38
2022-12-08T10:11:45.608Z,23.60
2022-12-08T10:14:20.782Z,23.67
2022-12-08T10:16:51.362Z,24.14
2022-12-08T10:19:23.432Z,24.13
2022-12-08T10:21:52.119Z,24.22
2022-12-08T10:24:24.163Z,24.19
2022-12-08T10:26:52.641Z,24.75
2022-12-08T10:29:20.856Z,24.74
2022-12-08T10:31:49.968Z,24.63
2022-12-08T10:34:23.256Z,24.83
2022-12-08T10:36:53.380Z,24.67
2022-12-08T10:39:32.443Z,24.19
2022-12-08T10:42:18.759Z,24.03
2022-12-08T10:44:56.559Z,24.16
2022-12-08T10:47:27.263Z,24.71
2022-12-08T10:50:21.006Z,24.63
2022-12-08T10:52:56.152Z,24.51
2022-12-08T10:55:24.660Z,25.10
2022-12-08T10:57:53.107Z,25.26
2022-12-08T11:00:23.842Z,25.25
2022-12-08T11:02:58.388Z,24.76
2022-12-08T11:05:31.007Z,24.84
2022-12-08T11:08:00.220Z,25.44
2022-12-08T11:10:36.433Z,24.87
2022-12-08T11:13:07.113Z,25.04
2022-12-08T11:15:39.543Z,24.80
2022-12-08T11:18:10.930Z,25.22
2022-12-08T11:20:42.087Z,25.23
2022-12-08T11:23:21.292Z,24.42
2022-12-08T11:25:50.268Z,25.24
2022-12-08T11:28:23.683Z,25.13
2022-12-08T11:30:57.683Z,25.16
2022-12-08T11:33:27.243Z,25.56
2022-12-08T11:36:01.429Z,25.29
2022-12-08T11:38:30.714Z,25.50
2022-12-08T11:41:02.830Z,25.16
2022-12-08T11:43:39.267Z,24.90
2022-12-08T11:46:13.857Z,24.58
2022-12-08T11:48:46.496Z,24.86
2022-12-08T11:51:18.651Z,24.99
2022-12-08T11:53:53.164Z,25.00
2022-12-08T11:56:23.821Z,25.32
2022-12-08T11:58:55.143Z,24.95
2022-12-08T12:01:25.697Z,25.72
2022-12-08T12:04:01.172Z,25.89
2022-12-08T12:06:54.743Z,25.81
2022-12-08T12:09:32.871Z,25.64
2022-12-08T12:12:16.051Z,26.04
2022-12-08T12:15:18.764Z,26.18
2022-12-08T12:17:49.288Z,26.63
2022-12-08T12:20:21.058Z,26.55
2022-12-08T12:22:51.512Z,25.84
2022-12-08T12:25:23.736Z,27.27
2022-12-08T12:27:57.214Z,27.73
2022-12-08T12:30:27.556Z,27.98
2022-12-08T12:32:58.461Z,28.23
2022-12-08T12:35:33.661Z,28.16
2022-12-08T12:38:27.433Z,28.83
2022-12-08T12:41:00.256Z,29.08
2022-12-08T12:43:33.274Z,29.35
2022-12-08T12:46:42.268Z,29.08
2022-12-08T12:49:48.779Z,29.21
2022-12-08T12:52:42.872Z,29.59
2022-12-08T12:55:29.221Z,29.72
2022-12-08T12:57:58.525Z,30.65
2022-12-08T13:00:28.191Z,30.46
2022-12-08T13:02:57.961Z,30.75
2022-12-08T13:05:27.920Z,30.69
2022-12-08T13:07:58.343Z,30.81
2022-12-08T13:10:30.690Z,30.72
2022-12-08T13:13:08.649Z,30.40
2022-12-08T13:15:38.555Z,31.14
2022-12-08T13:18:07.901Z,31.22
2022-12-08T13:20:43.319Z,31.01
2022-12-08T13:23:29.489Z,30.90
2022-12-08T13:26:21.442Z,30.84
2022-12-08T13:29:15.183Z,30.62
2022-12-08T13:31:50.076Z,31.70
2022-12-08T13:34:22.614Z,31.60
2022-12-08T13:37:01.452Z,31.15
2022-12-08T13:39:33.794Z,32.07
2022-12-08T13:42:06.994Z,32.00
2022-12-08T13:45:18.492Z,32.12
2022-12-08T13:47:34.698Z,32.09
2022-12-08T13:58:38.708Z,32.17
2022-12-08T14:01:08.060Z,30.91
2022-12-08T14:04:11.649Z,31.84
2022-12-08T14:06:38.506Z,32.62
2022-12-08T14:09:11.172Z,32.73
2022-12-08T14:11:41.551Z,32.84
2022-12-08T14:14:27.202Z,32.63
2022-12-08T14:17:05.247Z,33.15
2022-12-08T14:19:35.364Z,33.06
2022-12-08T14:22:11.500Z,32.73
2022-12-08T14:24:39.902Z,33.12
2022-12-08T14:27:10.534Z,33.12
2022-12-08T14:29:45.069Z,32.78
2022-12-08T14:32:29.179Z,32.83
2022-12-08T14:35:00.682Z,33.37
2022-12-08T14:37:30.360Z,33.48
2022-12-08T14:39:59.768Z,33.67
2022-12-08T14:42:30.045Z,33.73
2022-12-08T14:45:02.862Z,33.27
2022-12-08T14:47:33.492Z,33.61
2022-12-08T14:50:03.184Z,33.73
2022-12-08T14:52:32.181Z,33.63
2022-12-08T14:55:00.789Z,33.50
2022-12-08T14:57:34.911Z,33.09
2022-12-08T15:00:12.558Z,32.92
2022-12-08T15:02:46.389Z,33.12
2022-12-08T15:05:17.364Z,33.27
2022-12-08T15:07:49.886Z,32.15
2022-12-08T15:10:26.555Z,33.27
2022-12-08T15:13:07.534Z,33.05
2022-12-08T15:15:51.283Z,32.71
2022-12-08T15:18:21.321Z,33.63
2022-12-08T15:20:51.659Z,33.47
2022-12-08T15:23:27.383Z,32.86
2022-12-08T15:25:56.835Z,33.80
2022-12-08T15:28:30.103Z,33.73
2022-12-08T15:31:00.242Z,33.59
2022-12-08T15:33:28.727Z,33.81
2022-12-08T15:35:56.995Z,33.91
2022-12-08T15:38:28.968Z,33.63
2022-12-08T15:40:58.753Z,33.60
2022-12-08T15:43:27.417Z,33.63
2022-12-08T15:46:00.354Z,33.61
2022-12-08T15:48:31.271Z,33.70
2022-12-08T15:50:59.972Z,33.78
2022-12-08T15:53:28.390Z,33.84
2022-12-08T15:58:53.728Z,33.94
2022-12-08T16:01:23.729Z,34.08
2022-12-08T16:07:20.220Z,34.00
2022-12-08T16:09:34.139Z,33.73
2022-12-08T16:12:20.346Z,34.03
2022-12-08T16:17:38.260Z,33.95
2022-12-08T16:20:12.922Z,33.84
2022-12-08T16:23:13.171Z,34.00
2022-12-08T16:25:52.614Z,34.26
2022-12-08T16:28:52.002Z,34.49
2022-12-08T16:31:13.310Z,34.86
2022-12-08T16:33:42.326Z,35.10
2022-12-08T16:36:12.425Z,34.95
2022-12-08T16:38:40.591Z,35.12
2022-12-08T16:41:32.038Z,34.81
2022-12-08T16:44:02.614Z,34.95
2022-12-08T16:46:31.241Z,35.28
2022-12-08T16:48:59.719Z,35.40
2022-12-08T16:51:29.580Z,35.19
2022-12-08T16:53:58.481Z,35.46
2022-12-08T16:56:32.519Z,35.32
2022-12-08T16:59:02.195Z,35.16
2022-12-08T17:01:31.266Z,35.21
2022-12-08T17:04:30.874Z,34.87
2022-12-08T17:06:52.877Z,34.83
2022-12-08T17:09:21.189Z,35.11
2022-12-08T17:11:49.867Z,35.38
2022-12-08T17:14:18.276Z,35.54
2022-12-08T17:16:47.098Z,35.77
2022-12-08T17:19:15.882Z,35.78
2022-12-08T17:21:45.250Z,35.85
2022-12-08T17:24:18.669Z,35.59
2022-12-08T17:26:51.762Z,35.65
2022-12-08T17:29:19.987Z,35.62
2022-12-08T17:31:48.513Z,35.63
2022-12-08T17:34:17.053Z,35.93
2022-12-08T17:36:45.569Z,35.63
2022-12-08T17:39:18.797Z,35.64
2022-12-08T17:41:48.007Z,35.80
2022-12-08T17:44:17.676Z,36.06
2022-12-08T17:46:52.149Z,36.29
2022-12-08T17:49:24.133Z,35.94
2022-12-08T17:51:54.740Z,35.89
2022-12-08T17:54:24.909Z,35.89
2022-12-08T17:56:53.439Z,36.13
2022-12-08T17:59:21.929Z,35.95
2022-12-08T18:01:50.540Z,35.73
2022-12-08T18:04:18.792Z,35.75
2022-12-08T18:06:47.377Z,35.71
2022-12-08T18:09:16.089Z,35.52
2022-12-08T18:11:47.185Z,35.42
2022-12-08T18:14:16.141Z,35.58
2022-12-08T18:16:46.190Z,35.38
2022-12-08T18:19:15.292Z,35.70
2022-12-08T18:21:44.221Z,35.66
2022-12-08T18:24:18.398Z,35.03
2022-12-08T18:26:48.261Z,35.07
2022-12-08T18:29:16.635Z,34.98
2022-12-08T18:31:45.134Z,35.01
2022-12-08T18:34:13.392Z,34.88
2022-12-08T18:36:42.021Z,34.71
2022-12-08T18:39:22.015Z,33.97
2022-12-08T18:41:51.995Z,34.46
2022-12-08T18:44:20.489Z,34.53
2022-12-08T18:46:49.169Z,34.31
2022-12-08T18:49:18.993Z,34.21
2022-12-08T18:51:47.759Z,34.15
2022-12-08T18:54:16.087Z,34.13
2022-12-08T18:56:44.623Z,34.03
2022-12-08T18:59:14.309Z,33.75
2022-12-08T19:01:43.049Z,34.02
2022-12-08T19:07:00.118Z,33.82
2022-12-08T19:09:29.111Z,33.70
2022-12-08T19:11:57.735Z,33.82
2022-12-08T19:14:28.477Z,33.71
2022-12-08T19:16:57.838Z,33.86
2022-12-08T19:19:27.827Z,33.72
2022-12-08T19:21:56.419Z,33.90
2022-12-08T19:24:24.869Z,33.82
2022-12-08T19:26:53.727Z,33.77
2022-12-08T19:29:22.008Z,33.67
2022-12-08T19:31:52.119Z,33.74
2022-12-08T19:34:20.419Z,33.92
2022-12-08T19:36:49.087Z,33.68
2022-12-08T19:39:36.541Z,33.67
2022-12-08T19:42:23.222Z,33.54
2022-12-08T19:44:54.769Z,33.58
2022-12-08T19:47:26.271Z,33.23
2022-12-08T19:50:16.000Z,33.41
2022-12-08T19:52:45.144Z,33.22
2022-12-08T19:55:13.893Z,33.17
2022-12-08T19:57:42.556Z,32.88
2022-12-08T20:00:13.680Z,32.79
2022-12-08T20:02:43.693Z,32.77
2022-12-08T20:05:12.521Z,32.70
2022-12-08T20:07:41.374Z,32.89
2022-12-08T20:10:13.970Z,32.79
2022-12-08T20:12:42.410Z,32.66
2022-12-08T20:15:11.784Z,32.66
2022-12-08T20:17:40.394Z,32.67
2022-12-08T20:20:13.800Z,32.29
2022-12-08T20:22:42.996Z,32.67
2022-12-08T20:25:13.225Z,32.86
2022-12-08T20:27:42.798Z,32.83
2022-12-08T20:30:16.741Z,33.15
2022-12-08T20:32:46.237Z,33.05
2022-12-08T20:35:17.922Z,32.93
2022-12-08T20:37:46.365Z,33.05
2022-12-08T20:40:14.582Z,33.08
2022-12-08T20:42:43.071Z,32.87
2022-12-08T20:45:11.525Z,32.97
2022-12-08T20:47:40.329Z,33.06
2022-12-08T20:50:10.056Z,33.08
2022-12-08T20:52:40.661Z,32.67
2022-12-08T20:55:10.014Z,32.61
2022-12-08T20:57:38.614Z,32.58
2022-12-08T21:00:08.498Z,32.50
2022-12-08T21:02:41.825Z,32.38
2022-12-08T21:05:13.737Z,32.31
2022-12-08T21:07:43.953Z,31.94
2022-12-08T21:10:12.426Z,31.91
2022-12-08T21:12:41.167Z,31.90
2022-12-08T21:15:12.336Z,31.88
2022-12-08T21:17:41.426Z,31.91
2022-12-08T21:20:10.711Z,31.50
2022-12-08T21:22:40.317Z,31.31
2022-12-08T21:25:10.909Z,31.10
2022-12-08T21:27:40.028Z,31.28
2022-12-08T21:30:10.817Z,31.00
2022-12-08T21:32:40.223Z,31.02
2022-12-08T21:35:10.052Z,30.97
2022-12-08T21:37:39.002Z,31.01
2022-12-08T21:40:08.714Z,30.83
2022-12-08T21:42:47.066Z,30.63
2022-12-08T21:45:17.253Z,30.75
2022-12-08T21:47:46.816Z,30.86
2022-12-08T21:50:15.880Z,30.93
2022-12-08T21:52:47.599Z,30.34
2022-12-08T21:55:17.159Z,30.74
2022-12-08T21:57:47.384Z,30.71
2022-12-08T22:00:18.266Z,30.64
2022-12-08T22:02:47.010Z,30.87
2022-12-08T22:05:15.489Z,31.01
2022-12-08T22:07:44.266Z,30.99
2022-12-08T22:10:12.863Z,30.95
2022-12-08T22:12:42.620Z,30.93
2022-12-08T22:15:13.065Z,30.85
2022-12-08T22:17:43.999Z,30.93
2022-12-08T22:20:14.129Z,31.10
2022-12-08T22:22:43.098Z,31.24
2022-12-08T22:25:12.677Z,31.20
2022-12-08T22:27:43.113Z,31.18
2022-12-08T22:30:13.484Z,31.02
2022-12-08T22:32:42.543Z,31.32
2022-12-08T22:35:11.373Z,31.44
2022-12-08T22:37:39.886Z,31.31
2022-12-08T22:40:09.519Z,31.24
2022-12-08T22:42:38.316Z,31.12
2022-12-08T22:45:08.102Z,31.19
2022-12-08T22:47:38.408Z,31.09
2022-12-08T22:50:08.246Z,31.17
2022-12-08T22:52:37.068Z,31.24
2022-12-08T22:55:06.164Z,31.12
2022-12-08T22:57:35.123Z,31.25
2022-12-08T23:00:03.637Z,31.30
2022-12-08T23:02:32.188Z,31.22
2022-12-08T23:05:02.221Z,31.22
2022-12-08T23:07:33.962Z,31.58
2022-12-08T23:10:02.251Z,31.75
2022-12-08T23:12:30.700Z,31.91
2022-12-08T23:14:58.973Z,31.99
2022-12-08T23:17:27.815Z,32.18
2022-12-08T23:19:56.235Z,32.02
2022-12-08T23:22:26.043Z,32.08
2022-12-08T23:24:54.530Z,32.05
2022-12-08T23:27:22.926Z,31.98
2022-12-08T23:29:51.360Z,32.09
2022-12-08T23:32:20.009Z,31.92
2022-12-08T23:34:48.967Z,32.19
2022-12-08T23:37:17.722Z,31.96
2022-12-08T23:39:47.476Z,31.84
2022-12-08T23:42:16.124Z,31.87
2022-12-08T23:44:44.632Z,32.20
2022-12-08T23:47:13.520Z,32.06
2022-12-08T23:49:41.862Z,31.94
2022-12-08T23:52:12.985Z,31.64
2022-12-08T23:54:41.910Z,31.89
2022-12-08T23:57:11.783Z,31.45
2022-12-08T23:59:40.079Z,31.72
